Time;durP1;ratioP1;P1;durP2;ratioP2;P2;SDS_P1;SDS_P2;PMS_P1;PMS_P2;Temp;Humidity;BMP_temperature;BMP_pressure;BME280_temperature;BME280_humidity;BME280_pressure;Samples;Min_cycle;Max_cycle;Signal;HPM_P1;HPM_P2
2022/09/28 00:01:51;;;;;;;16.12;12.78;;;;;;;16.67;100.00;151841.31;1749309;79;21279;-65
2022/09/28 00:04:19;;;;;;;18.65;12.58;;;;;;;16.67;100.00;151841.31;1768408;80;21021;-66
2022/09/28 00:06:46;;;;;;;19.00;12.35;;;;;;;16.68;100.00;151845.23;1772999;80;21029;-66
2022/09/28 00:09:14;;;;;;;23.20;12.93;;;;;;;16.70;100.00;151849.17;1772140;80;21033;-65
2022/09/28 00:11:42;;;;;;;15.00;12.00;;;;;;;16.72;100.00;151854.37;1771554;79;21013;-61
2022/09/28 00:14:11;;;;;;;16.52;11.53;;;;;;;16.74;100.00;151859.58;1773002;80;21843;-61
2022/09/28 00:16:43;;;;;;;17.55;11.45;;;;;;;16.75;100.00;151863.47;1771629;80;20997;-66
2022/09/28 00:19:11;;;;;;;17.05;11.12;;;;;;;16.76;100.00;151864.78;1756606;79;21014;-66
2022/09/28 00:21:40;;;;;;;18.92;12.43;;;;;;;16.78;100.00;151870.00;1737995;81;21448;-65
2022/09/28 00:24:11;;;;;;;17.25;12.15;;;;;;;16.78;100.00;151870.00;1737400;81;22072;-65
2022/09/28 00:26:49;;;;;;;18.77;12.37;;;;;;;16.79;100.00;151871.28;1730663;80;21864;-66
2022/09/28 00:29:28;;;;;;;19.82;12.30;;;;;;;16.79;100.00;151872.59;1731526;80;21045;-65
2022/09/28 00:32:01;;;;;;;14.15;11.63;;;;;;;16.80;100.00;151875.22;1740937;80;21001;-61
2022/09/28 00:34:33;;;;;;;19.42;11.78;;;;;;;16.82;100.00;151880.42;1732077;81;21076;-61
2022/09/28 00:37:01;;;;;;;16.62;12.28;;;;;;;16.82;100.00;151880.42;1737842;81;21002;-60
2022/09/28 00:39:30;;;;;;;18.77;12.20;;;;;;;16.83;100.00;151883.03;1740879;81;21241;-60
2022/09/28 00:41:57;;;;;;;27.02;12.03;;;;;;;16.84;100.00;151884.34;1735973;82;20989;-60
2022/09/28 00:44:35;;;;;;;21.73;12.98;;;;;;;16.86;100.00;151889.56;1723543;81;21114;-65
2022/09/28 00:47:25;;;;;;;22.85;12.95;;;;;;;16.86;100.00;151890.84;1727948;81;21036;-65
2022/09/28 00:50:21;;;;;;;22.48;13.05;;;;;;;16.90;100.00;151901.25;1739744;81;21017;-61
2022/09/28 00:53:18;;;;;;;;;;;;;;;16.95;100.00;151913.00;1743786;81;21908;-65
2022/09/28 00:55:53;;;;;;;14.80;12.20;;;;;;;16.99;100.00;151922.19;1717500;79;20514;-65
2022/09/28 00:58:26;;;;;;;14.78;11.73;;;;;;;17.03;100.00;149345.00;1714947;80;21074;-65
2022/09/28 01:00:55;;;;;;;20.00;12.93;;;;;;;17.07;100.00;146382.56;1765382;79;21336;-65
2022/09/28 01:03:22;;;;;;;17.42;12.78;;;;;;;17.10;100.00;146907.22;1746483;79;21645;-61
2022/09/28 01:05:50;;;;;;;21.02;13.00;;;;;;;17.13;100.00;148616.84;1757683;79;21117;-60
2022/09/28 01:08:19;;;;;;;20.95;13.03;;;;;;;17.15;100.00;150649.00;1775002;79;21014;-60
2022/09/28 01:10:50;;;;;;;17.77;13.38;;;;;;;17.18;100.00;151971.73;1744684;80;21020;-60
2022/09/28 01:13:18;;;;;;;16.32;12.78;;;;;;;17.22;100.00;151979.55;1741167;79;21090;-60
2022/09/28 01:16:00;;;;;;;15.05;12.45;;;;;;;17.26;100.00;151989.97;1748431;79;21132;-60
2022/09/28 01:18:58;;;;;;;17.98;11.78;;;;;;;17.29;100.00;151997.78;1757145;78;21991;-61
2022/09/28 01:21:27;;;;;;;15.83;11.83;;;;;;;17.31;100.00;152003.00;1789542;79;21008;-60
2022/09/28 01:24:11;;;;;;;16.57;12.73;;;;;;;17.35;100.00;152013.41;1780121;79;21029;-61
2022/09/28 01:26:56;;;;;;;14.38;11.63;;;;;;;17.36;100.00;152016.06;1789355;79;21048;-61
2022/09/28 01:29:47;;;;;;;16.57;11.48;;;;;;;17.38;100.00;152021.28;1805720;79;20995;-61
2022/09/28 01:32:43;;;;;;;18.10;11.60;;;;;;;17.39;100.00;152022.56;1792527;79;21810;-61
2022/09/28 01:35:31;;;;;;;17.00;11.95;;;;;;;17.41;100.00;152027.77;1801970;79;21040;-65
2022/09/28 01:38:09;;;;;;;14.95;11.25;;;;;;;17.43;100.00;152034.31;1787588;77;21044;-66
2022/09/28 01:40:36;;;;;;;16.12;11.50;;;;;;;17.47;100.00;152043.45;1800170;79;21087;-64
2022/09/28 01:43:07;;;;;;;19.77;12.28;;;;;;;17.49;100.00;152047.33;1797026;79;21107;-64
2022/09/28 01:45:47;;;;;;;16.77;13.43;;;;;;;17.52;100.00;152055.16;1793017;79;21941;-64
2022/09/28 01:48:24;;;;;;;16.05;12.25;;;;;;;17.54;100.00;152060.36;1780140;79;21089;-65
2022/09/28 01:50:54;;;;;;;16.75;13.10;;;;;;;17.55;100.00;152062.97;1792895;78;21080;-67
2022/09/28 01:53:25;;;;;;;16.27;12.70;;;;;;;17.57;100.00;152068.19;1786578;79;21076;-66
2022/09/28 01:55:56;;;;;;;19.77;13.65;;;;;;;17.58;100.00;152070.83;1790356;78;21066;-66
2022/09/28 01:58:58;;;;;;;23.45;13.13;;;;;;;17.57;100.00;152068.19;1800231;79;21874;-66
2022/09/28 02:01:32;;;;;;;29.52;12.78;;;;;;;17.52;100.00;152056.47;1796685;78;21028;-61
2022/09/28 02:04:17;;;;;;;30.85;13.48;;;;;;;17.45;100.00;152039.52;1803075;79;21015;-61
2022/09/28 02:06:53;;;;;;;42.73;14.65;;;;;;;17.39;100.00;152023.89;1786967;79;21427;-60
2022/09/28 02:09:37;;;;;;;77.00;15.80;;;;;;;17.33;100.00;152008.20;1783323;79;21523;-61
2022/09/28 02:12:17;;;;;;;113.68;18.45;;;;;;;17.28;100.00;151995.17;1789766;79;21507;-60
2022/09/28 02:14:44;;;;;;;49.18;14.98;;;;;;;17.24;100.00;151984.75;1791288;78;21716;-60
2022/09/28 02:17:11;;;;;;;61.40;15.28;;;;;;;17.22;100.00;151979.55;1780809;79;21079;-61
2022/09/28 02:19:38;;;;;;;39.95;15.08;;;;;;;17.21;100.00;151978.22;1787235;79;20909;-60
2022/09/28 02:22:24;;;;;;;28.05;14.93;;;;;;;17.22;100.00;151980.81;1782616;79;20997;-65
2022/09/28 02:25:42;;;;;;;53.15;14.65;;;;;;;17.23;100.00;151982.16;1780573;79;21231;-65
2022/09/28 02:28:12;;;;;;;34.83;14.38;;;;;;;17.24;100.00;151984.75;1772087;80;21048;-65
2022/09/28 02:30:43;;;;;;;29.07;13.35;;;;;;;17.21;100.00;151976.94;1771494;80;21040;-64
2022/09/28 02:33:25;;;;;;;24.82;13.45;;;;;;;17.20;100.00;151975.61;1770735;80;21072;-65
2022/09/28 02:35:52;;;;;;;25.65;13.53;;;;;;;17.22;100.00;151979.55;1778325;79;21000;-65
2022/09/28 02:38:20;;;;;;;20.12;13.68;;;;;;;17.24;100.00;151986.08;1769621;79;21264;-65
2022/09/28 02:40:59;;;;;;;28.12;13.25;;;;;;;17.25;100.00;151987.36;1773956;80;20956;-65
2022/09/28 02:43:42;;;;;;;19.67;13.50;;;;;;;17.27;100.00;151992.56;1770594;78;21506;-60
2022/09/28 02:46:18;;;;;;;18.43;14.40;;;;;;;17.28;100.00;151995.17;1781580;79;21522;-60
2022/09/28 02:49:05;;;;;;;21.45;14.35;;;;;;;17.28;100.00;151996.50;1695397;80;21053;-60
2022/09/28 02:51:56;;;;;;;18.00;14.13;;;;;;;17.29;100.00;151997.78;1804422;78;25910;-60
2022/09/28 02:54:45;;;;;;;21.37;14.75;;;;;;;17.25;100.00;151988.69;1807293;79;21151;-59
2022/09/28 02:57:27;;;;;;;22.52;15.10;;;;;;;17.26;100.00;151991.30;1801946;77;20997;-61
2022/09/28 03:00:09;;;;;;;23.77;15.53;;;;;;;17.20;100.00;151975.61;1788776;78;21552;-60
2022/09/28 03:03:02;;;;;;;23.42;15.48;;;;;;;17.16;100.00;151965.19;1800563;79;21554;-60
2022/09/28 03:05:51;;;;;;;20.27;16.60;;;;;;;17.16;100.00;151966.52;1784288;79;21183;-60
2022/09/28 03:08:34;;;;;;;23.50;15.45;;;;;;;17.18;100.00;151971.73;1791051;79;21009;-64
2022/09/28 03:11:11;;;;;;;19.57;16.27;;;;;;;17.17;100.00;151969.13;1801793;79;21064;-64
2022/09/28 03:13:39;;;;;;;32.85;19.35;;;;;;;17.16;100.00;151966.52;1794318;79;21439;-60
2022/09/28 03:16:14;;;;;;;23.10;17.65;;;;;;;17.16;100.00;151966.52;1787039;79;21076;-60
2022/09/28 03:18:41;;;;;;;25.10;18.27;;;;;;;17.17;100.00;151967.80;1794397;79;21259;-64
2022/09/28 03:21:10;;;;;;;22.73;17.27;;;;;;;17.18;100.00;151971.73;1757159;79;21137;-61
2022/09/28 03:23:37;;;;;;;28.87;17.75;;;;;;;17.21;100.00;151976.94;1736604;79;21487;-61
2022/09/28 03:26:04;;;;;;;21.12;15.43;;;;;;;17.22;100.00;151980.81;1731934;81;21474;-60
2022/09/28 03:28:31;;;;;;;21.65;14.90;;;;;;;17.25;100.00;151987.36;1743742;81;21027;-59
2022/09/28 03:30:59;;;;;;;23.20;14.93;;;;;;;17.29;100.00;151997.78;1734583;81;21177;-60
2022/09/28 03:33:26;;;;;;;19.60;14.30;;;;;;;17.33;100.00;152008.20;1735907;81;22052;-60
2022/09/28 03:35:53;;;;;;;14.98;13.32;;;;;;;17.36;100.00;152016.06;1740332;81;21133;-60
2022/09/28 03:38:20;;;;;;;17.92;12.95;;;;;;;17.42;100.00;152030.37;1731926;81;21090;-60
2022/09/28 03:40:58;;;;;;;15.53;12.37;;;;;;;17.45;100.00;152039.52;1729561;81;21400;-60
2022/09/28 03:43:25;;;;;;;18.05;12.10;;;;;;;17.51;100.00;152052.55;1739981;81;21190;-60
2022/09/28 03:45:55;;;;;;;17.62;13.35;;;;;;;17.55;100.00;152064.30;1736988;81;21041;-60
2022/09/28 03:48:27;;;;;;;24.45;16.45;;;;;;;17.57;100.00;152068.19;1741176;81;21131;-61
2022/09/28 03:50:55;;;;;;;23.47;17.48;;;;;;;17.57;100.00;152069.50;1725780;81;21046;-60
2022/09/28 03:53:23;;;;;;;17.65;13.80;;;;;;;17.58;100.00;152072.11;1735362;81;21078;-61
2022/09/28 03:55:51;;;;;;;16.10;13.25;;;;;;;17.61;100.00;152078.66;1738576;81;21141;-61
2022/09/28 03:58:20;;;;;;;25.40;13.65;;;;;;;17.65;100.00;152089.06;1732312;81;21025;-60
2022/09/28 04:00:48;;;;;;;21.90;13.93;;;;;;;17.71;100.00;152104.70;1738952;80;20969;-59
2022/09/28 04:03:15;;;;;;;16.80;11.68;;;;;;;17.76;100.00;152116.47;1740478;81;21026;-60
2022/09/28 04:05:50;;;;;;;17.67;12.88;;;;;;;17.78;100.00;152120.34;1736136;81;20997;-60
2022/09/28 04:08:18;;;;;;;17.35;13.08;;;;;;;17.81;100.00;152128.22;1733409;81;21180;-60
2022/09/28 04:10:47;;;;;;;21.37;13.15;;;;;;;17.86;100.00;152142.52;1731531;81;21053;-60
2022/09/28 04:13:14;;;;;;;25.68;15.05;;;;;;;17.84;100.00;152136.03;1732436;81;21059;-59
2022/09/28 04:15:42;;;;;;;21.30;13.93;;;;;;;17.84;100.00;152136.03;1737223;81;20992;-60
2022/09/28 04:18:10;;;;;;;18.82;14.07;;;;;;;17.83;100.00;152133.42;1722361;82;20982;-60
2022/09/28 04:21:07;;;;;;;18.48;13.83;;;;;;;17.83;100.00;152134.70;1737745;81;21899;-60
2022/09/28 04:23:43;;;;;;;21.10;14.25;;;;;;;17.85;100.00;152138.64;1730003;82;21074;-60
2022/09/28 04:26:22;;;;;;;19.50;14.28;;;;;;;17.83;100.00;152133.42;1737129;81;20999;-61
2022/09/28 04:31:49;;;;;;;19.05;14.58;;;;;;;17.80;100.00;152125.61;1727372;82;21059;-60
2022/09/28 04:34:20;;;;;;;22.22;15.23;;;;;;;17.80;100.00;152125.61;1703720;82;21181;-61
2022/09/28 04:36:47;;;;;;;20.25;15.08;;;;;;;17.79;100.00;149143.11;1710573;82;21046;-61
2022/09/28 04:39:16;;;;;;;21.52;16.48;;;;;;;17.80;100.00;141928.38;1692424;82;21059;-60
2022/09/28 04:41:47;;;;;;;23.02;15.72;;;;;;;17.81;100.00;139297.94;1753084;79;22152;-60
2022/09/28 04:44:14;;;;;;;23.75;17.25;;;;;;;17.84;100.00;132293.27;1737227;79;21519;-60
2022/09/28 04:46:42;;;;;;;25.35;17.75;;;;;;;17.88;100.00;126527.61;1736378;80;21316;-60
2022/09/28 04:49:27;;;;;;;24.65;16.12;;;;;;;17.95;100.00;119031.42;1728025;79;21019;-61
2022/09/28 04:51:56;;;;;;;25.68;17.55;;;;;;;18.03;100.00;124112.63;1771514;79;21017;-61
2022/09/28 04:54:23;;;;;;;25.55;17.42;;;;;;;18.12;100.00;127102.45;1756169;79;21123;-66
2022/09/28 04:56:51;;;;;;;30.57;19.55;;;;;;;18.20;100.00;132723.28;1750374;79;21450;-65
2022/09/28 04:59:18;;;;;;;36.68;21.82;;;;;;;18.25;100.00;140630.12;1766190;79;21284;-64
2022/09/28 05:01:46;;;;;;;36.53;19.95;;;;;;;18.28;100.00;138530.08;1768362;79;21017;-66
2022/09/28 05:04:31;;;;;;;44.67;22.85;;;;;;;18.23;100.00;138869.27;1744124;79;21020;-66
2022/09/28 05:07:16;;;;;;;38.75;21.80;;;;;;;18.20;100.00;127819.84;1758465;79;21079;-65
2022/09/28 05:09:43;;;;;;;37.88;21.87;;;;;;;18.15;100.00;116976.36;1779537;79;20981;-65
2022/09/28 05:12:11;;;;;;;42.58;22.15;;;;;;;18.15;100.00;109134.91;1763135;79;21116;-60
2022/09/28 05:14:40;;;;;;;38.88;20.75;;;;;;;18.12;100.00;102174.17;1766612;79;21009;-61
2022/09/28 05:17:09;;;;;;;39.40;21.90;;;;;;;18.12;100.00;99743.16;1766625;79;22209;-61
2022/09/28 05:19:36;;;;;;;31.42;19.35;;;;;;;18.09;100.00;98176.17;1766896;78;21025;-60
2022/09/28 05:22:03;;;;;;;27.00;18.45;;;;;;;18.11;100.00;91592.73;1798906;79;21525;-60
2022/09/28 05:24:33;;;;;;;31.30;18.70;;;;;;;18.13;100.00;92288.69;1791807;79;22256;-67
2022/09/28 05:26:59;;;;;;;24.70;18.37;;;;;;;18.13;100.00;98877.05;1779403;79;21009;-66
2022/09/28 05:29:26;;;;;;;22.37;16.70;;;;;;;18.14;100.00;94890.34;1799761;79;21028;-66
2022/09/28 05:32:13;;;;;;;25.82;16.45;;;;;;;18.15;100.00;96278.22;1690234;82;21115;-65
2022/09/28 05:34:48;;;;;;;;;;;;;;;18.17;100.00;106006.89;1689974;83;21057;-65
2022/09/28 05:37:17;;;;;;;32.48;18.85;;;;;;;18.12;100.00;125003.77;1734816;79;22070;-61
2022/09/28 05:39:45;;;;;;;29.07;16.35;;;;;;;18.12;100.00;132354.64;1777953;77;21083;-61
2022/09/28 05:42:12;;;;;;;33.15;18.57;;;;;;;18.10;100.00;137083.58;1777833;79;21021;-65
2022/09/28 05:44:39;;;;;;;33.45;18.52;;;;;;;18.07;100.00;137251.95;1787288;79;21649;-60
2022/09/28 05:47:06;;;;;;;38.73;19.40;;;;;;;18.11;100.00;128151.15;1796957;79;21037;-60
2022/09/28 05:49:32;;;;;;;31.87;19.00;;;;;;;18.13;100.00;122034.84;1786652;78;22526;-66
2022/09/28 05:52:01;;;;;;;32.60;18.65;;;;;;;18.18;100.00;111578.36;1795923;78;21114;-60
2022/09/28 05:54:28;;;;;;;33.15;19.85;;;;;;;18.28;100.00;107243.89;1796576;78;21095;-60
2022/09/28 05:56:55;;;;;;;29.55;18.45;;;;;;;18.38;100.00;111789.13;1789677;78;21324;-61
2022/09/28 05:59:22;;;;;;;31.25;19.00;;;;;;;18.43;100.00;124018.78;1798511;78;21008;-66
2022/09/28 06:01:49;;;;;;;30.48;19.00;;;;;;;18.49;100.00;138225.20;1812191;77;21494;-66
2022/09/28 06:04:16;;;;;;;24.18;17.10;;;;;;;18.56;100.00;144570.81;1800829;78;21072;-62
2022/09/28 06:06:44;;;;;;;22.35;16.42;;;;;;;18.67;100.00;151076.12;1773715;79;20994;-66
2022/09/28 06:09:11;;;;;;;23.10;15.13;;;;;;;18.78;100.00;152373.50;1804572;77;21064;-66
2022/09/28 06:11:51;;;;;;;23.70;16.65;;;;;;;18.85;100.00;152391.75;1791417;78;21107;-65
2022/09/28 06:14:26;;;;;;;;;;;;;;;18.97;100.00;152421.78;1806662;77;21134;-66
2022/09/28 06:16:54;;;;;;;27.65;15.58;;;;;;;19.12;100.00;152459.72;1792591;77;20182;-65
2022/09/28 06:19:21;;;;;;;22.05;15.03;;;;;;;19.28;100.00;152500.17;1791027;77;21036;-65
2022/09/28 06:22:07;;;;;;;19.45;14.23;;;;;;;19.49;100.00;152551.06;1792012;78;21122;-65
2022/09/28 06:24:36;;;;;;;21.33;13.68;;;;;;;19.68;100.00;152599.41;1800348;79;21119;-65
2022/09/28 06:27:03;;;;;;;17.00;13.30;;;;;;;19.86;100.00;152646.38;1807522;77;21604;-65
2022/09/28 06:29:30;;;;;;;16.80;12.43;;;;;;;20.00;100.00;152680.41;1787189;78;21176;-66
2022/09/28 06:31:57;;;;;;;17.87;13.15;;;;;;;20.13;100.00;152714.37;1803987;77;21442;-61
2022/09/28 06:34:24;;;;;;;18.05;10.98;;;;;;;20.26;100.00;152747.03;1808542;77;21569;-61
2022/09/28 06:36:51;;;;;;;17.60;11.43;;;;;;;20.40;100.00;152782.30;1799153;77;21048;-61
2022/09/28 06:39:18;;;;;;;13.85;10.90;;;;;;;20.53;100.00;152814.95;1800772;77;21503;-61
2022/09/28 06:41:45;;;;;;;18.40;10.85;;;;;;;20.68;100.00;152851.55;1791957;79;21065;-61
2022/09/28 06:44:14;;;;;;;14.18;10.15;;;;;;;20.79;99.46;152879.00;1801346;77;21034;-61
2022/09/28 06:46:45;;;;;;;13.08;10.63;;;;;;;20.88;99.22;152902.53;1773606;77;21056;-62
2022/09/28 06:49:24;;;;;;;12.55;9.08;;;;;;;21.00;96.22;152933.92;1792872;77;20996;-62
2022/09/28 06:51:59;;;;;;;11.95;9.08;;;;;;;21.10;94.88;152958.70;1752276;79;21650;-61
2022/09/28 06:54:30;;;;;;;10.00;8.10;;;;;;;21.27;93.30;153000.55;1777266;78;21012;-60
2022/09/28 06:57:02;;;;;;;11.60;7.53;;;;;;;21.43;89.76;153042.39;1805460;77;21012;-62
2022/09/28 06:59:30;;;;;;;9.03;7.35;;;;;;;21.71;89.82;153113.02;1805690;76;21345;-62
2022/09/28 07:01:59;;;;;;;10.58;7.60;;;;;;;22.00;84.87;153186.28;1799118;77;21008;-60
2022/09/28 07:04:45;;;;;;;8.90;7.40;;;;;;;21.92;83.42;153165.31;1799016;77;21120;-61
2022/09/28 07:07:13;;;;;;;12.18;7.47;;;;;;;21.80;84.44;153133.97;1780296;79;21493;-61
2022/09/28 07:09:54;;;;;;;11.38;7.22;;;;;;;21.77;83.18;153126.08;1775561;77;21044;-61
2022/09/28 07:12:24;;;;;;;8.83;7.47;;;;;;;21.81;83.52;153136.58;1770822;77;21044;-60
2022/09/28 07:14:56;;;;;;;8.35;6.50;;;;;;;22.37;82.23;153277.78;1801135;77;21040;-61
2022/09/28 07:17:23;;;;;;;7.10;5.97;;;;;;;22.70;78.96;153361.58;1800066;77;21082;-61
2022/09/28 07:19:56;;;;;;;9.30;5.90;;;;;;;22.79;76.98;153385.11;1763829;79;21494;-61
2022/09/28 07:22:22;;;;;;;9.45;5.70;;;;;;;22.80;74.87;153386.44;1722688;81;21447;-61
2022/09/28 07:24:51;;;;;;;5.30;4.75;;;;;;;22.87;74.36;153406.02;1687141;82;21047;-66
2022/09/28 07:27:37;;;;;;;5.47;4.22;;;;;;;22.99;72.85;153434.83;1744317;80;21078;-64
2022/09/28 07:30:12;;;;;;;;;;;;;;;23.03;71.67;153445.28;1729168;81;21186;-65
2022/09/28 07:32:56;;;;;;;6.37;4.65;;;;;;;23.03;70.73;153445.28;1737716;80;20178;-65
2022/09/28 07:35:33;;;;;;;4.80;4.25;;;;;;;23.01;68.69;153440.06;1750215;80;21461;-64
2022/09/28 07:38:05;;;;;;;7.00;4.60;;;;;;;22.83;68.88;153395.56;1748609;80;21090;-65
2022/09/28 07:43:19;;;;;;;6.17;4.10;;;;;;;22.59;69.24;153335.39;1746432;80;21204;-65
2022/09/28 07:45:51;;;;;;;3.75;3.45;;;;;;;22.49;69.13;153309.25;1732993;80;21053;-65
2022/09/28 07:48:21;;;;;;;4.87;4.03;;;;;;;22.31;68.20;153264.72;1726717;79;20949;-65
2022/09/28 07:51:08;;;;;;;6.92;4.40;;;;;;;22.15;68.42;153224.19;1757761;79;20989;-66
2022/09/28 07:53:40;;;;;;;7.65;3.98;;;;;;;22.00;69.24;153186.28;1750018;79;21311;-64
2022/09/28 07:56:19;;;;;;;3.98;3.50;;;;;;;21.93;69.78;153167.94;1720105;79;21693;-64
2022/09/28 07:58:48;;;;;;;4.72;4.28;;;;;;;21.85;70.34;153147.03;1749301;79;21092;-65
2022/09/28 08:01:34;;;;;;;6.40;3.90;;;;;;;21.75;70.56;153123.47;1753832;79;21021;-65
2022/09/28 08:04:01;;;;;;;4.75;3.95;;;;;;;21.64;71.10;153094.69;1751367;79;21045;-65
2022/09/28 08:06:29;;;;;;;8.23;3.80;;;;;;;21.58;70.88;153079.00;1743167;79;35720;-66
2022/09/28 08:09:00;;;;;;;5.78;3.92;;;;;;;21.50;70.97;153058.06;1769253;79;21117;-62
2022/09/28 08:11:35;;;;;;;6.42;3.80;;;;;;;21.46;71.36;153050.22;1746609;79;21096;-66
2022/09/28 08:14:05;;;;;;;4.75;3.45;;;;;;;21.40;71.37;153034.55;1751277;79;21105;-66
2022/09/28 08:16:52;;;;;;;5.70;3.40;;;;;;;21.40;70.89;153034.55;1751195;79;21690;-65
2022/09/28 08:19:20;;;;;;;3.75;3.33;;;;;;;21.49;70.40;153056.78;1767671;79;22261;-65
2022/09/28 08:21:48;;;;;;;3.95;3.00;;;;;;;21.61;69.13;153086.84;1730443;81;21256;-65
2022/09/28 08:24:16;;;;;;;7.45;2.65;;;;;;;21.71;67.71;153113.02;1728366;82;21488;-64
2022/09/28 08:26:46;;;;;;;2.70;2.27;;;;;;;21.80;65.58;153133.97;1749139;79;21404;-66
2022/09/28 08:29:15;;;;;;;4.67;2.42;;;;;;;21.88;64.26;153156.20;1758795;79;20984;-66
2022/09/28 08:31:51;;;;;;;2.17;1.90;;;;;;;21.94;64.28;153170.55;1734261;80;21054;-66
2022/09/28 08:34:21;;;;;;;2.45;2.00;;;;;;;22.06;63.79;153200.63;1735104;80;21032;-66
2022/09/28 08:37:08;;;;;;;2.77;2.12;;;;;;;22.13;63.01;153217.63;1736003;81;21082;-65
2022/09/28 08:39:50;;;;;;;2.72;2.40;;;;;;;22.18;62.39;153230.69;1731197;82;21082;-60
2022/09/28 08:42:25;;;;;;;2.80;2.40;;;;;;;22.14;62.44;153220.25;1784575;78;21494;-60
2022/09/28 08:44:58;;;;;;;5.60;3.05;;;;;;;22.16;63.32;153225.47;1795036;77;21026;-61
2022/09/28 08:51:20;;;;;;;6.20;2.58;;;;;;;22.27;64.83;153254.27;1801873;78;21052;-60
2022/09/28 08:54:40;;;;;;;6.03;2.40;;;;;;;22.40;64.31;153286.97;1797010;77;21088;-60
2022/09/28 08:57:16;;;;;;;2.83;2.30;;;;;;;22.57;63.41;153330.16;1793288;78;21030;-60
2022/09/28 08:59:58;;;;;;;1.90;1.77;;;;;;;22.66;60.98;153352.41;1786438;77;20991;-60
2022/09/28 09:02:35;;;;;;;3.47;2.20;;;;;;;22.64;61.01;153345.84;1784060;79;21296;-60
2022/09/28 09:05:18;;;;;;;3.37;2.00;;;;;;;22.65;61.16;153348.47;1787597;79;21029;-61
2022/09/28 09:08:26;;;;;;;2.83;2.42;;;;;;;22.74;61.19;153372.03;1777928;79;21021;-61
2022/09/28 09:11:11;;;;;;;3.65;2.00;;;;;;;22.75;61.16;153374.66;1802875;77;20920;-61
2022/09/28 09:14:05;;;;;;;2.45;1.80;;;;;;;22.79;61.51;153383.83;1773856;79;21032;-63
2022/09/28 09:17:02;;;;;;;2.50;2.10;;;;;;;22.83;61.38;153394.28;1800497;77;21218;-61
2022/09/28 09:19:54;;;;;;;6.37;1.98;;;;;;;22.83;61.15;153395.56;1803478;77;22801;-60
2022/09/28 09:22:40;;;;;;;2.10;1.90;;;;;;;22.76;61.46;153377.27;1799769;77;21007;-61
2022/09/28 09:25:19;;;;;;;3.92;1.80;;;;;;;22.64;61.71;153345.84;1791379;77;21048;-61
2022/09/28 09:28:28;;;;;;;3.65;1.70;;;;;;;22.57;62.22;153330.16;1766830;79;21029;-61
2022/09/28 09:31:23;;;;;;;5.20;1.82;;;;;;;22.51;63.07;153313.16;1733195;81;21178;-61
2022/09/28 09:34:03;;;;;;;5.28;2.10;;;;;;;22.32;64.53;153267.33;1744191;80;21117;-60
2022/09/28 09:37:15;;;;;;;4.30;2.15;;;;;;;22.19;66.06;153233.31;1803443;77;21055;-63
2022/09/28 09:40:29;;;;;;;5.90;2.20;;;;;;;22.00;67.22;153186.28;1773640;78;21032;-62
2022/09/28 09:43:40;;;;;;;2.77;1.80;;;;;;;21.84;68.19;153144.42;1800874;77;21025;-62
2022/09/28 09:46:42;;;;;;;4.08;1.80;;;;;;;21.60;68.35;153085.52;1781969;77;21245;-61
2022/09/28 09:49:27;;;;;;;2.85;1.82;;;;;;;21.54;66.99;153068.50;1804906;79;21489;-66
2022/09/28 09:52:23;;;;;;;6.25;2.17;;;;;;;21.62;66.46;153089.45;1802468;78;21001;-65
2022/09/28 09:54:57;;;;;;;10.30;2.30;;;;;;;21.78;65.75;153128.75;1793821;78;21117;-61
2022/09/28 09:57:46;;;;;;;3.90;2.20;;;;;;;21.94;65.11;153170.55;1789125;78;21009;-60
2022/09/28 10:00:17;;;;;;;11.10;2.17;;;;;;;22.13;64.28;153217.63;1771518;78;21726;-61
2022/09/28 10:02:47;;;;;;;4.22;2.30;;;;;;;22.28;62.83;153256.87;1798832;78;21030;-61
2022/09/28 10:05:21;;;;;;;4.92;2.40;;;;;;;22.38;62.54;153280.41;1799996;78;21052;-61
2022/09/28 10:08:06;;;;;;;3.08;2.30;;;;;;;22.48;62.60;153306.64;1791695;79;21017;-65
2022/09/28 10:10:36;;;;;;;5.72;2.55;;;;;;;22.50;62.36;153310.53;1794209;78;22501;-65
2022/09/28 10:13:09;;;;;;;8.13;2.33;;;;;;;22.46;62.84;153301.36;1789305;78;21469;-66
2022/09/28 10:15:36;;;;;;;9.63;2.30;;;;;;;22.51;62.65;153313.16;1803247;78;21100;-65
2022/09/28 10:18:11;;;;;;;3.37;2.30;;;;;;;22.55;62.23;153323.66;1811671;78;21055;-66
2022/09/28 10:20:56;;;;;;;4.25;3.00;;;;;;;22.61;61.97;153340.63;1808518;77;21066;-65
2022/09/28 10:23:35;;;;;;;6.08;2.33;;;;;;;22.68;61.66;153356.34;1785297;78;21044;-65
2022/09/28 10:26:05;;;;;;;9.05;2.80;;;;;;;22.73;61.42;153369.42;1806684;77;21113;-65
2022/09/28 10:28:57;;;;;;;7.33;3.00;;;;;;;22.74;61.04;153372.03;1786558;78;21032;-66
2022/09/28 10:31:42;;;;;;;6.33;3.50;;;;;;;22.72;60.51;153368.09;1796418;77;21077;-65
2022/09/28 10:34:13;;;;;;;6.03;3.20;;;;;;;22.64;60.86;153345.84;1795924;79;21061;-66
2022/09/28 10:37:03;;;;;;;5.92;3.45;;;;;;;22.54;60.72;153322.31;1762463;79;21143;-66
2022/09/28 10:39:54;;;;;;;12.47;4.33;;;;;;;22.44;60.54;153297.42;1786100;79;21097;-66
2022/09/28 10:42:30;;;;;;;4.92;4.25;;;;;;;22.20;60.93;153235.92;1800559;77;20941;-65
2022/09/28 10:45:19;;;;;;;4.03;3.47;;;;;;;22.04;61.27;153196.72;1796315;77;20961;-66
2022/09/28 10:47:46;;;;;;;5.53;3.70;;;;;;;21.89;61.28;153158.81;1805615;77;21122;-65
2022/09/28 10:50:26;;;;;;;3.98;3.30;;;;;;;21.71;61.09;153113.02;1795741;77;21017;-65
2022/09/28 10:53:19;;;;;;;4.03;3.40;;;;;;;21.61;61.38;153086.84;1788442;77;21096;-66
2022/09/28 10:55:59;;;;;;;3.35;3.05;;;;;;;21.49;61.58;153055.45;1773711;77;21108;-66
2022/09/28 10:58:37;;;;;;;7.83;3.20;;;;;;;21.29;62.17;153005.78;1798259;77;21016;-66
2022/09/28 11:01:10;;;;;;;5.67;3.37;;;;;;;21.17;62.48;152977.05;1800551;77;21504;-65
2022/09/28 11:04:00;;;;;;;6.22;3.87;;;;;;;21.03;63.00;152940.44;1806012;77;21095;-65
2022/09/28 11:06:32;;;;;;;7.15;3.83;;;;;;;20.91;63.77;152909.09;1801342;77;21197;-65
2022/09/28 11:09:02;;;;;;;6.20;3.75;;;;;;;20.87;64.07;152899.94;1785667;77;21013;-66
2022/09/28 11:11:30;;;;;;;6.90;3.98;;;;;;;20.83;64.14;152890.77;1803794;77;21454;-65
2022/09/28 11:14:00;;;;;;;8.15;4.47;;;;;;;20.79;64.36;152880.28;1763485;80;21037;-66
2022/09/28 11:16:35;;;;;;;4.50;4.00;;;;;;;20.76;64.69;152873.72;1764430;79;21028;-65
2022/09/28 11:19:23;;;;;;;8.10;4.20;;;;;;;20.73;64.77;152864.61;1804455;77;21189;-65
2022/09/28 11:21:50;;;;;;;5.67;4.40;;;;;;;20.69;64.82;152854.16;1805730;77;21071;-66
2022/09/28 11:24:20;;;;;;;4.92;3.85;;;;;;;20.58;64.52;152826.72;1816709;77;21103;-66
2022/09/28 11:26:55;;;;;;;6.28;4.80;;;;;;;20.50;64.86;152807.13;1804430;77;20937;-65
2022/09/28 11:29:42;;;;;;;8.63;4.70;;;;;;;20.43;65.13;152788.80;1811545;78;21012;-66
2022/09/28 11:32:29;;;;;;;9.28;5.40;;;;;;;20.33;65.50;152765.30;1807430;77;21826;-68
2022/09/28 11:35:00;;;;;;;7.58;4.85;;;;;;;20.22;65.89;152736.55;1749063;78;21021;-65
2022/09/28 11:37:43;;;;;;;9.28;4.60;;;;;;;20.16;66.39;152722.22;1813334;77;21016;-66
2022/09/28 11:40:27;;;;;;;10.08;5.30;;;;;;;20.17;66.49;152723.50;1796190;78;21565;-61
2022/09/28 11:43:32;;;;;;;6.97;4.92;;;;;;;20.19;66.64;152728.72;1790258;77;25937;-66
2022/09/28 11:46:10;;;;;;;10.18;5.08;;;;;;;20.19;66.37;152728.72;1799101;77;21214;-61
2022/09/28 11:48:45;;;;;;;9.75;4.20;;;;;;;20.15;66.62;152718.28;1801707;77;21073;-61
2022/09/28 11:51:19;;;;;;;8.63;4.17;;;;;;;20.12;66.87;152710.44;1806262;77;21038;-66
2022/09/28 11:53:56;;;;;;;5.10;4.25;;;;;;;20.12;66.94;152710.44;1794137;77;21359;-61
2022/09/28 11:56:39;;;;;;;5.17;4.15;;;;;;;20.04;66.94;152692.17;1801961;77;21032;-60
2022/09/28 11:59:19;;;;;;;5.53;4.95;;;;;;;19.93;67.20;152662.12;1804823;77;21238;-60
2022/09/28 12:02:21;;;;;;;9.13;4.80;;;;;;;19.84;67.10;152639.87;1807431;77;21088;-65